Time;durP1;ratioP1;P1;durP2;ratioP2;P2;SDS_P1;SDS_P2;PMS_P1;PMS_P2;Temp;Humidity;BMP_temperature;BMP_pressure;BME280_temperature;BME280_humidity;BME280_pressure;Samples;Min_cycle;Max_cycle;Signal;HPM_P1;HPM_P2
2022/07/16 00:02:44;;;;;;;5.13;4.10;;;23.10;84.90;;;;;;5073947;28;20023;-59
2022/07/16 00:05:10;;;;;;;5.43;4.00;;;23.20;85.30;;;;;;5074029;28;20115;-58
2022/07/16 00:07:35;;;;;;;6.05;3.60;;;23.10;85.00;;;;;;5073569;28;20032;-57
2022/07/16 00:10:02;;;;;;;4.40;4.00;;;23.30;85.30;;;;;;5073710;28;20060;-59
2022/07/16 00:12:28;;;;;;;5.07;3.70;;;23.10;85.20;;;;;;5073275;28;20040;-58
2022/07/16 00:14:53;;;;;;;5.20;3.60;;;23.30;84.70;;;;;;5072310;28;20469;-59
2022/07/16 00:17:19;;;;;;;5.07;3.90;;;23.00;85.30;;;;;;5068472;28;20108;-59
2022/07/16 00:19:45;;;;;;;5.70;3.60;;;22.90;86.00;;;;;;5053426;28;20028;-59
2022/07/16 00:22:11;;;;;;;6.38;3.95;;;23.10;85.50;;;;;;5068427;28;20606;-58
2022/07/16 00:24:37;;;;;;;5.28;3.80;;;22.90;85.80;;;;;;5072946;28;20028;-58
2022/07/16 00:27:03;;;;;;;6.57;3.80;;;23.00;86.20;;;;;;5062616;28;20104;-58
2022/07/16 00:29:29;;;;;;;4.43;3.72;;;23.00;85.90;;;;;;5053352;28;20473;-58
2022/07/16 00:31:55;;;;;;;4.55;3.63;;;22.90;86.50;;;;;;5053263;28;20025;-58
2022/07/16 00:34:22;;;;;;;4.30;3.50;;;22.90;86.50;;;;;;5053156;28;20382;-58
2022/07/16 00:36:48;;;;;;;7.28;3.47;;;23.00;86.40;;;;;;5053251;28;20080;-58
2022/07/16 00:39:16;;;;;;;4.50;3.47;;;22.90;86.50;;;;;;5072932;28;20033;-59
2022/07/16 00:41:43;;;;;;;5.90;3.70;;;23.00;86.40;;;;;;5072692;28;20032;-59
2022/07/16 00:44:12;;;;;;;5.93;3.60;;;23.00;86.80;;;;;;5072974;28;20028;-59
2022/07/16 00:46:39;;;;;;;5.82;3.92;;;22.90;86.80;;;;;;5072947;28;20073;-59
2022/07/16 00:49:05;;;;;;;5.28;3.60;;;22.90;86.70;;;;;;5073111;28;20029;-59
2022/07/16 00:51:33;;;;;;;4.25;3.50;;;22.80;87.30;;;;;;5072578;28;20028;-59
2022/07/16 00:53:59;;;;;;;8.00;3.65;;;22.80;87.20;;;;;;5072831;28;20032;-58
2022/07/16 00:56:26;;;;;;;5.45;3.72;;;22.70;87.80;;;;;;5072771;28;20443;-58
2022/07/16 00:58:53;;;;;;;5.35;3.42;;;22.90;87.00;;;;;;5071328;28;20036;-59
2022/07/16 01:01:19;;;;;;;7.28;3.90;;;22.90;87.40;;;;;;5071885;28;20108;-59
2022/07/16 01:03:45;;;;;;;6.03;3.45;;;22.80;87.90;;;;;;5072482;28;20028;-59
2022/07/16 01:06:13;;;;;;;5.43;3.80;;;22.80;88.10;;;;;;5072406;28;20074;-59
2022/07/16 01:08:44;;;;;;;5.63;3.45;;;22.70;88.50;;;;;;5072953;28;20028;-58
2022/07/16 01:11:13;;;;;;;3.80;3.38;;;22.60;88.90;;;;;;5072156;28;20074;-58
2022/07/16 01:13:42;;;;;;;5.40;3.53;;;22.40;88.80;;;;;;5072417;28;20020;-59
2022/07/16 01:16:09;;;;;;;5.32;3.33;;;22.40;89.20;;;;;;5071057;28;20516;-59
2022/07/16 01:18:36;;;;;;;4.88;3.50;;;22.20;90.00;;;;;;5072637;28;20035;-58
2022/07/16 01:21:02;;;;;;;4.63;3.38;;;22.40;89.80;;;;;;5072055;28;20420;-58
2022/07/16 01:23:28;;;;;;;6.20;3.63;;;22.30;90.10;;;;;;5061303;28;20112;-58
2022/07/16 01:25:54;;;;;;;10.35;3.80;;;22.50;89.70;;;;;;5052108;28;20049;-58
2022/07/16 01:28:20;;;;;;;7.38;3.42;;;22.40;89.90;;;;;;5052315;28;20036;-58
2022/07/16 01:30:47;;;;;;;6.47;3.20;;;22.30;90.00;;;;;;5052589;28;20032;-59
2022/07/16 01:33:23;;;;;;;5.20;3.38;;;22.30;90.20;;;;;;5050929;28;20025;-59
2022/07/16 01:35:53;;;;;;;6.38;3.35;;;22.30;90.20;;;;;;5051812;28;20557;-58
2022/07/16 01:38:19;;;;;;;3.50;3.13;;;22.30;90.40;;;;;;5064615;28;20058;-58
2022/07/16 01:40:45;;;;;;;4.03;2.95;;;22.30;90.50;;;;;;5071845;28;20431;-59
2022/07/16 01:43:19;;;;;;;6.32;3.13;;;22.20;90.90;;;;;;5072215;28;20021;-59
2022/07/16 01:45:46;;;;;;;4.20;3.22;;;22.10;90.50;;;;;;5071934;28;20059;-58
2022/07/16 01:48:14;;;;;;;4.18;3.53;;;22.20;90.70;;;;;;5072385;28;20024;-59
2022/07/16 01:50:42;;;;;;;6.95;3.55;;;21.90;90.90;;;;;;5072100;28;20029;-58
2022/07/16 01:53:08;;;;;;;5.03;3.40;;;21.70;91.00;;;;;;5072036;28;20082;-59
2022/07/16 01:55:35;;;;;;;5.78;3.65;;;21.60;91.10;;;;;;5071962;28;20032;-58
2022/07/16 01:58:05;;;;;;;5.72;3.47;;;21.30;91.00;;;;;;5071887;28;20047;-59
2022/07/16 02:00:31;;;;;;;4.25;3.55;;;21.20;92.00;;;;;;5071687;28;20064;-59
2022/07/16 02:02:57;;;;;;;4.78;3.50;;;21.00;92.40;;;;;;5072302;28;20020;-59
2022/07/16 02:05:24;;;;;;;3.83;3.50;;;21.00;92.50;;;;;;5071765;28;20029;-59
2022/07/16 02:07:50;;;;;;;3.75;3.35;;;20.90;92.80;;;;;;5071983;28;20025;-58
2022/07/16 02:10:16;;;;;;;4.22;3.70;;;20.90;92.90;;;;;;5071814;28;20032;-59
2022/07/16 02:12:41;;;;;;;4.63;3.50;;;20.90;93.10;;;;;;5072383;28;20103;-59
2022/07/16 02:15:08;;;;;;;5.32;3.63;;;21.20;93.30;;;;;;5068086;28;20033;-59
2022/07/16 02:17:35;;;;;;;3.97;3.35;;;21.10;93.20;;;;;;5062293;28;20032;-59
2022/07/16 02:20:03;;;;;;;4.00;3.47;;;21.00;93.30;;;;;;5055857;28;20029;-59
2022/07/16 02:22:29;;;;;;;4.95;3.33;;;21.00;93.10;;;;;;5055670;28;20067;-57
2022/07/16 02:24:56;;;;;;;3.80;3.42;;;20.80;93.30;;;;;;5055674;28;20100;-59
2022/07/16 02:27:21;;;;;;;4.40;3.58;;;20.90;93.60;;;;;;5055744;28;20025;-57
2022/07/16 02:29:47;;;;;;;5.60;3.70;;;21.00;93.60;;;;;;5055909;28;20031;-59
2022/07/16 02:32:13;;;;;;;5.05;3.35;;;21.00;93.40;;;;;;5055470;28;20416;-59
2022/07/16 02:34:38;;;;;;;4.68;3.47;;;21.10;93.60;;;;;;5055479;28;20029;-59
2022/07/16 02:37:04;;;;;;;5.82;3.50;;;21.00;93.60;;;;;;5063008;28;20123;-58
2022/07/16 02:39:31;;;;;;;6.63;3.30;;;21.00;93.90;;;;;;5075200;28;20079;-59
2022/07/16 02:41:56;;;;;;;6.35;3.80;;;21.10;93.70;;;;;;5075307;28;20086;-58
2022/07/16 02:44:22;;;;;;;5.00;3.40;;;21.40;93.40;;;;;;5075216;28;20028;-58
2022/07/16 02:46:48;;;;;;;5.80;3.45;;;21.10;93.90;;;;;;5075570;28;20028;-59
2022/07/16 02:49:13;;;;;;;5.18;3.45;;;21.00;94.30;;;;;;5075105;28;20107;-58
2022/07/16 02:51:39;;;;;;;4.28;3.42;;;21.00;94.30;;;;;;5074786;28;20465;-57
2022/07/16 02:54:05;;;;;;;3.83;3.42;;;20.90;94.50;;;;;;5075049;28;20033;-59
2022/07/16 02:56:31;;;;;;;5.72;3.80;;;20.60;94.40;;;;;;5075029;28;20078;-59
2022/07/16 02:58:57;;;;;;;5.50;3.58;;;20.60;94.80;;;;;;5075160;28;20112;-58
2022/07/16 03:01:23;;;;;;;5.25;3.40;;;20.60;95.00;;;;;;5075223;28;20055;-59
2022/07/16 03:03:48;;;;;;;5.20;3.40;;;20.80;94.70;;;;;;5073779;28;20096;-58
2022/07/16 03:06:15;;;;;;;5.60;3.35;;;20.70;94.60;;;;;;5074525;28;20024;-58
2022/07/16 03:08:40;;;;;;;4.80;3.78;;;20.40;95.20;;;;;;5073636;28;20469;-58
2022/07/16 03:11:06;;;;;;;6.20;3.58;;;20.10;95.90;;;;;;5074677;28;20021;-58
2022/07/16 03:13:32;;;;;;;4.80;3.58;;;20.30;96.10;;;;;;5074704;28;20442;-58
2022/07/16 03:15:57;;;;;;;5.40;3.60;;;20.50;95.40;;;;;;5069223;28;20021;-58
2022/07/16 03:18:23;;;;;;;4.85;3.40;;;20.80;95.30;;;;;;5054738;28;20083;-58
2022/07/16 03:20:49;;;;;;;4.43;3.63;;;20.70;95.60;;;;;;5054158;28;20025;-58
2022/07/16 03:23:15;;;;;;;4.70;3.60;;;20.60;95.70;;;;;;5054564;28;20108;-57
2022/07/16 03:25:43;;;;;;;4.80;3.33;;;20.60;95.80;;;;;;5053748;28;20029;-58
2022/07/16 03:28:09;;;;;;;4.75;3.33;;;20.90;95.40;;;;;;5054393;28;20474;-58
2022/07/16 03:30:35;;;;;;;6.22;3.50;;;20.80;95.50;;;;;;5054778;28;20032;-58
2022/07/16 03:33:02;;;;;;;4.93;3.63;;;20.70;95.80;;;;;;5054268;28;20028;-58
2022/07/16 03:35:27;;;;;;;6.18;3.45;;;20.80;95.50;;;;;;5069034;28;20053;-58
2022/07/16 03:40:38;;;;;;;5.00;3.33;;;20.50;96.10;;;;;;5074657;28;20520;-58
2022/07/16 03:43:04;;;;;;;5.63;3.40;;;20.50;96.40;;;;;;5073867;28;20024;-58
2022/07/16 03:45:30;;;;;;;5.40;3.58;;;20.30;96.60;;;;;;5074518;28;20032;-59
2022/07/16 03:47:55;;;;;;;5.18;3.30;;;20.60;96.30;;;;;;5074186;28;20101;-58
2022/07/16 03:50:21;;;;;;;4.60;3.50;;;20.60;96.30;;;;;;5073673;28;20058;-58
2022/07/16 03:52:47;;;;;;;5.80;3.50;;;20.60;96.40;;;;;;5058133;28;20029;-58
2022/07/16 03:55:14;;;;;;;5.30;3.47;;;20.60;96.50;;;;;;5052836;28;20025;-57
2022/07/16 03:57:40;;;;;;;4.30;3.70;;;20.70;96.10;;;;;;5053989;28;20032;-59
2022/07/16 04:00:07;;;;;;;5.75;3.45;;;21.00;95.90;;;;;;5053648;28;20031;-58
2022/07/16 04:02:33;;;;;;;5.13;3.47;;;20.70;96.30;;;;;;5073071;28;20393;-58
2022/07/16 04:04:59;;;;;;;4.82;3.28;;;20.60;96.20;;;;;;5073887;28;20021;-58
2022/07/16 04:07:25;;;;;;;5.82;3.80;;;20.50;96.70;;;;;;5073791;28;20456;-58
2022/07/16 04:09:50;;;;;;;6.13;3.50;;;20.40;96.80;;;;;;5073847;28;20426;-58
2022/07/16 04:12:16;;;;;;;4.78;3.10;;;20.40;97.00;;;;;;5073477;28;20374;-59
2022/07/16 04:14:42;;;;;;;7.53;3.45;;;20.40;97.10;;;;;;5070002;28;20040;-59
2022/07/16 04:17:08;;;;;;;5.30;3.40;;;20.50;96.80;;;;;;5059828;28;20029;-58
2022/07/16 04:19:33;;;;;;;4.82;3.58;;;20.60;96.50;;;;;;5057347;28;20044;-58
2022/07/16 04:21:59;;;;;;;5.55;3.40;;;20.50;96.80;;;;;;5073695;28;20103;-57
2022/07/16 04:24:24;;;;;;;4.50;3.28;;;20.20;97.30;;;;;;5073343;28;20489;-58
2022/07/16 04:26:50;;;;;;;6.47;3.47;;;20.10;97.40;;;;;;5068918;28;20066;-56
2022/07/16 04:29:16;;;;;;;6.78;3.50;;;20.00;98.10;;;;;;5053314;28;20477;-58
2022/07/16 04:31:41;;;;;;;4.97;3.60;;;20.20;97.60;;;;;;5059994;28;20514;-59
2022/07/16 04:34:07;;;;;;;7.15;3.50;;;19.80;97.90;;;;;;5073109;28;20024;-58
2022/07/16 04:36:33;;;;;;;9.57;3.75;;;19.60;98.60;;;;;;5053365;28;20051;-57
2022/07/16 04:38:58;;;;;;;4.38;3.55;;;19.60;98.40;;;;;;5071120;28;20385;-59
2022/07/16 04:41:24;;;;;;;8.68;3.45;;;19.40;99.40;;;;;;5073095;28;20029;-59
2022/07/16 04:43:50;;;;;;;6.18;3.70;;;19.40;99.90;;;;;;5072861;28;20040;-58
2022/07/16 04:46:16;;;;;;;4.85;3.45;;;19.70;99.80;;;;;;5071763;28;20021;-58
2022/07/16 04:48:42;;;;;;;4.88;3.88;;;19.80;99.30;;;;;;5072505;28;20050;-58
2022/07/16 04:51:07;;;;;;;6.05;3.58;;;19.90;99.60;;;;;;5072738;28;20074;-59
2022/07/16 04:53:35;;;;;;;5.50;3.92;;;20.00;99.20;;;;;;5073289;28;20465;-56
2022/07/16 04:56:01;;;;;;;6.20;3.45;;;19.90;98.90;;;;;;5072864;28;20558;-57
2022/07/16 04:58:26;;;;;;;5.05;3.40;;;20.00;99.00;;;;;;5072652;28;20041;-56
2022/07/16 05:00:52;;;;;;;3.90;3.50;;;20.00;99.30;;;;;;5067805;28;20390;-58
2022/07/16 05:03:18;;;;;;;7.03;3.45;;;20.30;98.70;;;;;;5072252;28;20036;-58
2022/07/16 05:05:43;;;;;;;7.68;3.65;;;20.30;98.60;;;;;;5072516;28;20020;-58
2022/07/16 05:08:09;;;;;;;6.88;3.55;;;20.30;98.70;;;;;;5072895;28;20032;-58
2022/07/16 05:10:36;;;;;;;4.97;3.35;;;20.50;98.40;;;;;;5072647;28;20025;-58
2022/07/16 05:13:02;;;;;;;5.85;3.80;;;20.30;98.70;;;;;;5055789;28;20030;-58
2022/07/16 05:15:29;;;;;;;8.30;3.50;;;20.40;98.60;;;;;;5060873;28;20131;-58
2022/07/16 05:17:55;;;;;;;7.05;3.35;;;20.40;98.60;;;;;;5070358;28;20033;-58
2022/07/16 05:20:21;;;;;;;7.07;3.40;;;20.50;98.50;;;;;;5072650;28;20035;-58
2022/07/16 05:22:47;;;;;;;5.93;3.15;;;20.60;98.40;;;;;;5065699;28;20033;-57
2022/07/16 05:25:14;;;;;;;8.55;3.70;;;20.70;98.10;;;;;;5066207;28;20393;-57
2022/07/16 05:27:40;;;;;;;5.05;3.60;;;20.70;98.10;;;;;;5070835;28;20059;-56
2022/07/16 05:30:06;;;;;;;5.15;3.70;;;20.70;98.20;;;;;;5072576;28;20052;-57
2022/07/16 05:32:32;;;;;;;6.93;3.30;;;20.90;97.90;;;;;;5071761;28;20477;-58
2022/07/16 05:34:58;;;;;;;4.13;3.08;;;20.70;98.20;;;;;;5071935;28;20029;-61
2022/07/16 05:37:23;;;;;;;4.68;2.97;;;21.00;98.00;;;;;;5071691;28;20128;-58
2022/07/16 05:39:49;;;;;;;5.63;3.53;;;21.60;96.80;;;;;;5071662;28;20029;-58
2022/07/16 05:42:14;;;;;;;5.18;3.20;;;21.40;96.90;;;;;;5071959;28;20020;-57
2022/07/16 05:44:40;;;;;;;6.13;3.38;;;21.60;96.80;;;;;;5071566;28;20035;-56
2022/07/16 05:47:06;;;;;;;6.00;3.45;;;21.50;96.90;;;;;;5070819;28;20550;-58
2022/07/16 05:49:32;;;;;;;3.88;3.33;;;21.60;96.70;;;;;;5055618;28;20043;-56
2022/07/16 05:51:57;;;;;;;7.40;3.40;;;21.80;96.30;;;;;;5052557;28;20386;-58
2022/07/16 05:54:23;;;;;;;6.47;3.40;;;22.30;95.70;;;;;;5061715;28;20056;-58
2022/07/16 05:56:49;;;;;;;8.90;3.30;;;22.40;95.50;;;;;;5071419;28;20548;-58
2022/07/16 05:59:15;;;;;;;3.95;3.17;;;22.70;95.00;;;;;;5071162;28;20043;-57
2022/07/16 06:01:41;;;;;;;6.55;3.60;;;24.00;93.30;;;;;;5071914;28;20496;-57
2022/07/16 06:04:06;;;;;;;7.32;3.30;;;24.80;92.10;;;;;;5071749;28;20028;-57
2022/07/16 06:06:32;;;;;;;6.95;2.97;;;24.60;91.80;;;;;;5071738;28;20397;-58
2022/07/16 06:08:58;;;;;;;4.90;3.10;;;25.10;91.40;;;;;;5071523;28;20037;-57
2022/07/16 06:11:23;;;;;;;5.72;3.20;;;25.10;91.10;;;;;;5071380;28;20028;-57
2022/07/16 06:13:49;;;;;;;6.00;3.13;;;25.50;90.50;;;;;;5071831;28;20555;-58
2022/07/16 06:16:15;;;;;;;4.15;3.35;;;25.80;90.10;;;;;;5060021;28;20025;-58
2022/07/16 06:18:41;;;;;;;3.72;3.15;;;25.90;89.70;;;;;;5051557;28;20041;-58
2022/07/16 06:21:07;;;;;;;5.90;2.95;;;26.30;88.40;;;;;;5051163;28;20439;-58
2022/07/16 06:23:33;;;;;;;5.57;3.20;;;26.50;88.10;;;;;;5051714;28;20108;-57
2022/07/16 06:25:58;;;;;;;3.85;2.95;;;26.70;86.80;;;;;;5051444;28;20044;-58
2022/07/16 06:28:24;;;;;;;6.20;3.45;;;27.80;85.40;;;;;;5071334;28;20056;-58
2022/07/16 06:30:50;;;;;;;4.97;3.42;;;27.00;86.50;;;;;;5071445;28;20401;-58
2022/07/16 06:33:15;;;;;;;4.40;3.22;;;28.00;84.60;;;;;;5071191;28;20078;-58
2022/07/16 06:35:41;;;;;;;6.43;3.20;;;28.60;83.40;;;;;;5071003;28;20055;-58
2022/07/16 06:38:07;;;;;;;4.95;3.10;;;28.50;83.40;;;;;;5071112;28;20444;-58
2022/07/16 06:40:32;;;;;;;5.07;2.97;;;29.10;82.40;;;;;;5071301;28;20485;-58
2022/07/16 06:42:58;;;;;;;5.22;3.08;;;28.50;82.90;;;;;;5070928;28;20103;-58
2022/07/16 06:45:24;;;;;;;6.30;3.00;;;28.90;81.40;;;;;;5070898;28;20025;-58
2022/07/16 06:47:50;;;;;;;4.53;3.30;;;29.80;79.90;;;;;;5068507;28;20150;-58
2022/07/16 06:50:15;;;;;;;3.97;2.90;;;30.10;78.90;;;;;;5061976;28;20100;-58
2022/07/16 06:52:41;;;;;;;6.15;3.10;;;29.40;80.20;;;;;;5059565;28;20036;-58
2022/07/16 06:55:07;;;;;;;5.85;3.20;;;30.10;79.80;;;;;;5060910;28;20051;-59
2022/07/16 06:57:33;;;;;;;5.97;3.05;;;30.00;78.70;;;;;;5062223;28;20029;-58
2022/07/16 06:59:59;;;;;;;7.32;3.45;;;30.30;78.10;;;;;;5059092;28;20113;-58
2022/07/16 07:02:25;;;;;;;5.88;3.00;;;30.90;77.50;;;;;;5062345;28;20104;-58
2022/07/16 07:04:50;;;;;;;25.70;4.63;;;31.50;76.10;;;;;;5062637;28;20021;-58
2022/07/16 07:07:16;;;;;;;7.10;3.20;;;31.30;76.00;;;;;;5062343;28;20028;-58
2022/07/16 07:09:42;;;;;;;3.92;3.00;;;30.50;77.70;;;;;;5063936;28;20025;-58
2022/07/16 07:12:08;;;;;;;5.10;3.17;;;31.60;75.80;;;;;;5061662;28;20085;-58
2022/07/16 07:14:34;;;;;;;5.07;3.10;;;32.50;74.00;;;;;;5058539;28;20431;-58
2022/07/16 07:16:59;;;;;;;4.03;3.40;;;32.20;73.90;;;;;;5068899;28;20033;-58
2022/07/16 07:19:25;;;;;;;3.50;3.10;;;32.20;74.10;;;;;;5064419;28;20410;-59
2022/07/16 07:21:51;;;;;;;6.25;3.05;;;32.50;73.40;;;;;;5067919;28;20033;-58
2022/07/16 07:24:16;;;;;;;6.03;2.88;;;32.60;73.10;;;;;;5072043;28;20029;-58
2022/07/16 07:26:42;;;;;;;4.80;3.42;;;34.10;71.80;;;;;;5071141;28;20035;-58
2022/07/16 07:29:08;;;;;;;5.35;3.38;;;35.10;69.60;;;;;;5067694;28;20427;-58
2022/07/16 07:31:34;;;;;;;4.13;3.55;;;34.70;69.80;;;;;;5063777;28;20029;-58
2022/07/16 07:33:59;;;;;;;5.38;2.95;;;34.10;70.20;;;;;;5067862;28;20090;-59
2022/07/16 07:36:25;;;;;;;5.03;3.10;;;34.60;69.60;;;;;;5073688;28;20048;-58
2022/07/16 07:38:51;;;;;;;5.88;2.88;;;34.90;70.40;;;;;;5063891;28;20032;-58
2022/07/16 07:41:17;;;;;;;5.47;2.90;;;35.60;67.80;;;;;;5058031;28;20021;-59
2022/07/16 07:43:42;;;;;;;8.50;3.65;;;36.30;67.20;;;;;;5054608;28;20036;-59
2022/07/16 07:46:08;;;;;;;5.60;3.40;;;36.10;67.50;;;;;;5070957;28;20025;-58
2022/07/16 07:48:34;;;;;;;5.65;2.90;;;35.80;68.10;;;;;;5065619;28;20392;-58
2022/07/16 07:51:00;;;;;;;4.57;2.95;;;36.70;65.90;;;;;;5064087;28;20508;-58
2022/07/16 07:53:26;;;;;;;5.90;3.10;;;37.10;66.00;;;;;;5055857;28;20025;-58
2022/07/16 07:55:51;;;;;;;7.20;3.00;;;36.70;65.30;;;;;;5053879;28;20380;-64
2022/07/16 07:58:17;;;;;;;4.68;3.00;;;36.90;65.30;;;;;;5056285;28;20044;-60
2022/07/16 08:00:43;;;;;;;5.57;3.13;;;36.60;65.40;;;;;;5067587;28;20111;-59
2022/07/16 08:03:09;;;;;;;6.03;3.03;;;38.40;64.20;;;;;;5059578;28;20751;-58
2022/07/16 08:05:35;;;;;;;4.97;2.72;;;37.50;64.60;;;;;;5067010;28;20044;-58
2022/07/16 08:08:02;;;;;;;4.78;2.80;;;37.50;64.20;;;;;;5068476;28;20074;-59
2022/07/16 08:10:28;;;;;;;5.43;2.95;;;37.20;64.60;;;;;;5064060;28;20023;-58
2022/07/16 08:12:53;;;;;;;5.15;2.90;;;38.40;63.00;;;;;;5068167;28;20029;-58
2022/07/16 08:15:19;;;;;;;5.45;3.15;;;37.90;63.50;;;;;;5067183;28;20021;-59
2022/07/16 08:17:45;;;;;;;3.60;3.00;;;39.00;62.50;;;;;;5061147;28;20041;-58
2022/07/16 08:20:13;;;;;;;3.92;2.90;;;37.70;64.30;;;;;;5069181;28;20036;-59
2022/07/16 08:22:39;;;;;;;7.45;2.83;;;38.30;63.40;;;;;;5071948;28;20036;-59
2022/07/16 08:27:50;;;;;;;5.28;2.90;;;41.10;60.50;;;;;;5069363;28;20035;-59
2022/07/16 08:30:16;;;;;;;3.40;2.40;;;39.90;61.50;;;;;;5070717;28;20479;-59
2022/07/16 08:32:42;;;;;;;7.70;3.55;;;40.30;61.10;;;;;;5067697;28;20119;-59
2022/07/16 08:35:08;;;;;;;4.28;2.88;;;39.80;61.40;;;;;;5072852;28;20028;-59
2022/07/16 08:37:36;;;;;;;7.18;2.88;;;37.00;64.00;;;;;;5072904;28;20024;-59
2022/07/16 08:40:11;;;;;;;4.97;2.92;;;38.60;62.50;;;;;;5072502;28;20063;-59
2022/07/16 08:42:38;;;;;;;3.72;2.90;;;40.30;60.60;;;;;;5052741;28;20086;-59
2022/07/16 08:45:06;;;;;;;3.47;2.60;;;40.30;60.30;;;;;;5052674;28;20052;-59
2022/07/16 08:47:33;;;;;;;4.50;3.05;;;40.80;61.00;;;;;;5057875;28;20020;-59
2022/07/16 08:50:00;;;;;;;5.88;2.75;;;40.40;60.50;;;;;;5060135;28;20013;-60
2022/07/16 08:52:28;;;;;;;7.57;3.03;;;40.40;60.20;;;;;;5052704;28;20036;-59
2022/07/16 08:54:55;;;;;;;5.97;2.75;;;40.50;60.30;;;;;;5051918;28;20024;-59
2022/07/16 08:57:22;;;;;;;4.82;2.60;;;41.40;59.50;;;;;;5052709;28;20112;-59
2022/07/16 08:59:49;;;;;;;4.07;2.80;;;41.30;59.70;;;;;;5052412;28;20040;-59
2022/07/16 09:02:15;;;;;;;7.35;2.60;;;41.70;59.70;;;;;;5062610;28;20075;-60
2022/07/16 09:04:45;;;;;;;3.53;2.80;;;42.50;58.40;;;;;;5072479;28;20040;-59
2022/07/16 09:07:15;;;;;;;3.97;2.83;;;41.40;58.70;;;;;;5072532;28;20020;-59
2022/07/16 09:09:41;;;;;;;3.33;2.72;;;42.20;58.20;;;;;;5072110;28;20040;-59
2022/07/16 09:12:07;;;;;;;4.00;2.63;;;43.40;57.30;;;;;;5072389;28;20032;-62
2022/07/16 09:14:33;;;;;;;6.07;2.90;;;42.60;57.70;;;;;;5072390;28;20097;-59
2022/07/16 09:17:00;;;;;;;5.13;2.70;;;43.50;57.20;;;;;;5068428;28;20025;-60
2022/07/16 09:19:29;;;;;;;4.07;2.67;;;43.00;56.50;;;;;;5056696;28;20040;-59
2022/07/16 09:22:00;;;;;;;7.72;3.08;;;42.10;57.20;;;;;;5064993;28;20029;-59
2022/07/16 09:24:40;;;;;;;4.35;2.90;;;42.60;57.50;;;;;;5060066;28;20039;-60
2022/07/16 09:27:13;;;;;;;5.63;2.65;;;42.40;57.70;;;;;;5054964;28;20024;-60
2022/07/16 09:29:50;;;;;;;5.18;2.75;;;42.10;56.90;;;;;;5052308;28;20282;-60
2022/07/16 09:32:36;;;;;;;5.03;2.70;;;41.10;57.70;;;;;;5054720;28;20324;-60
2022/07/16 09:35:16;;;;;;;6.28;2.80;;;41.40;57.70;;;;;;5065562;28;20029;-60
2022/07/16 09:37:53;;;;;;;6.78;3.80;;;40.00;57.30;;;;;;5063168;28;20051;-60
2022/07/16 09:40:48;;;;;;;13.55;5.43;;;36.30;60.10;;;;;;5060196;28;20373;-59
2022/07/16 09:43:13;;;;;;;4.90;2.63;;;36.20;60.70;;;;;;5061805;28;20041;-60
2022/07/16 09:45:44;;;;;;;4.80;3.05;;;36.10;60.40;;;;;;5068885;28;20040;-61
2022/07/16 09:48:23;;;;;;;10.77;3.53;;;36.20;61.60;;;;;;5060979;28;20381;-60
2022/07/16 09:50:50;;;;;;;14.90;3.75;;;35.20;62.20;;;;;;5062717;28;20421;-60
2022/07/16 09:53:21;;;;;;;7.65;3.00;;;35.80;62.80;;;;;;5071700;28;20033;-59
2022/07/16 09:56:15;;;;;;;11.75;5.03;;;35.50;62.50;;;;;;5071689;28;20103;-59
2022/07/16 09:58:46;;;;;;;6.32;3.10;;;35.10;63.10;;;;;;5070717;28;20144;-60
2022/07/16 10:01:13;;;;;;;5.82;2.72;;;35.60;63.00;;;;;;5071781;28;20354;-60
2022/07/16 10:03:39;;;;;;;5.32;2.80;;;35.80;63.60;;;;;;5065277;28;20078;-60
2022/07/16 10:06:05;;;;;;;10.63;4.22;;;35.70;63.00;;;;;;5058484;28;20021;-58
2022/07/16 10:08:32;;;;;;;4.65;2.63;;;34.50;66.10;;;;;;5062872;28;20112;-58
2022/07/16 10:10:57;;;;;;;6.90;2.80;;;35.30;63.00;;;;;;5055815;28;20068;-59
2022/07/16 10:13:26;;;;;;;4.90;2.60;;;35.10;65.10;;;;;;5066610;28;20116;-61
2022/07/16 10:15:53;;;;;;;3.47;2.55;;;35.50;62.20;;;;;;5052332;28;20052;-59
2022/07/16 10:18:45;;;;;;;4.07;2.58;;;35.60;63.00;;;;;;5069355;28;20025;-60
2022/07/16 10:21:22;;;;;;;5.05;2.63;;;35.70;63.40;;;;;;5071774;28;20442;-60
2022/07/16 10:24:02;;;;;;;3.10;2.40;;;35.60;64.00;;;;;;5070956;28;20425;-58
2022/07/16 10:26:28;;;;;;;5.28;2.80;;;35.70;63.00;;;;;;5071827;28;20115;-58
2022/07/16 10:28:55;;;;;;;4.05;2.25;;;35.30;63.50;;;;;;5060750;28;20063;-58
2022/07/16 10:34:46;;;;;;;4.55;2.67;;;35.40;62.70;;;;;;5063474;28;20054;-58
2022/07/16 10:37:30;;;;;;;3.50;2.28;;;35.20;64.10;;;;;;5069449;28;20505;-58
2022/07/16 10:40:06;;;;;;;7.40;2.80;;;35.20;64.00;;;;;;5060484;28;20051;-57
2022/07/16 10:42:33;;;;;;;4.43;2.70;;;35.10;64.00;;;;;;5067516;28;20094;-57
2022/07/16 10:44:59;;;;;;;6.95;4.10;;;35.00;64.70;;;;;;5070559;28;20033;-58
2022/07/16 10:47:46;;;;;;;6.80;3.13;;;35.10;63.10;;;;;;5061013;28;20542;-59
2022/07/16 10:50:18;;;;;;;6.35;3.55;;;34.90;62.40;;;;;;5068428;28;20039;-59
2022/07/16 10:52:47;;;;;;;4.60;2.60;;;35.00;62.90;;;;;;5081749;28;20101;-57
2022/07/16 10:55:34;;;;;;;4.72;2.65;;;35.10;64.90;;;;;;5069560;28;20029;-59
2022/07/16 10:58:00;;;;;;;4.05;2.67;;;35.00;62.50;;;;;;5063170;28;20081;-57
2022/07/16 11:00:27;;;;;;;4.88;2.97;;;35.10;63.30;;;;;;5067471;28;20041;-56
2022/07/16 11:03:01;;;;;;;8.05;5.05;;;35.10;62.50;;;;;;5067158;28;20049;-57
2022/07/16 11:05:29;;;;;;;3.42;2.80;;;35.00;58.40;;;;;;5063174;28;20445;-58
2022/07/16 11:08:04;;;;;;;6.60;3.00;;;35.20;62.20;;;;;;5065193;28;20085;-56
2022/07/16 11:10:30;;;;;;;4.30;2.72;;;35.60;61.60;;;;;;5067133;28;20039;-57
2022/07/16 11:12:56;;;;;;;3.83;2.70;;;35.30;62.40;;;;;;5064616;28;20055;-56
2022/07/16 11:15:22;;;;;;;3.63;2.53;;;35.70;61.30;;;;;;5068498;28;20108;-57
2022/07/16 11:17:55;;;;;;;3.60;2.40;;;35.50;61.90;;;;;;5067436;28;20149;-56
2022/07/16 11:20:32;;;;;;;;;;;35.30;58.80;;;;;;5059139;28;20493;-57
2022/07/16 11:23:06;;;;;;;4.72;2.47;;;35.20;59.30;;;;;;5063493;28;19920;-58
2022/07/16 11:25:33;;;;;;;3.28;2.30;;;35.40;60.20;;;;;;5063350;28;20056;-57
2022/07/16 11:28:02;;;;;;;3.28;2.08;;;35.30;59.30;;;;;;5061736;28;20056;-57
2022/07/16 11:30:28;;;;;;;5.13;2.15;;;35.20;57.90;;;;;;5060711;28;20033;-57
2022/07/16 11:32:53;;;;;;;5.25;2.03;;;35.30;59.50;;;;;;5063247;28;20029;-56
2022/07/16 11:35:19;;;;;;;2.67;1.88;;;35.30;59.70;;;;;;5063436;28;20520;-57
2022/07/16 11:37:55;;;;;;;1.90;1.58;;;35.30;58.10;;;;;;5066545;28;20381;-58
2022/07/16 11:40:32;;;;;;;3.17;1.60;;;35.40;57.20;;;;;;5065182;28;20039;-57
2022/07/16 11:42:59;;;;;;;3.53;1.80;;;35.40;58.40;;;;;;5065372;28;20040;-57
2022/07/16 11:45:27;;;;;;;2.75;1.48;;;35.50;56.60;;;;;;5061926;28;20605;-57
2022/07/16 11:48:15;;;;;;;2.72;1.58;;;35.50;56.90;;;;;;5063789;28;20033;-57
2022/07/16 11:50:42;;;;;;;1.60;1.48;;;35.30;56.70;;;;;;5058314;28;20028;-57
2022/07/16 11:53:08;;;;;;;2.65;1.73;;;35.50;56.80;;;;;;5061040;28;20040;-58
2022/07/16 11:55:34;;;;;;;5.70;1.60;;;35.50;56.80;;;;;;5064855;28;20029;-55
2022/07/16 11:58:00;;;;;;;3.15;1.40;;;35.50;55.80;;;;;;5062376;28;20102;-58
2022/07/16 12:00:26;;;;;;;2.88;1.48;;;35.20;55.60;;;;;;5059181;28;20068;-57
2022/07/16 12:02:57;;;;;;;2.67;1.50;;;35.30;56.90;;;;;;5056911;28;20054;-57
2022/07/16 12:05:29;;;;;;;1.55;1.30;;;35.40;55.60;;;;;;5064708;28;20546;-57
2022/07/16 12:07:55;;;;;;;2.55;1.20;;;35.50;55.20;;;;;;5064121;28;20028;-57
2022/07/16 12:10:27;;;;;;;2.95;1.20;;;35.30;55.30;;;;;;5061723;28;20028;-58
2022/07/16 12:13:07;;;;;;;3.38;1.17;;;35.40;53.90;;;;;;5067026;28;20154;-57
2022/07/16 12:15:54;;;;;;;2.13;1.30;;;35.30;53.70;;;;;;5064889;28;20037;-57
2022/07/16 12:18:20;;;;;;;3.10;1.15;;;35.40;55.50;;;;;;5061938;28;20597;-58
2022/07/16 12:20:46;;;;;;;1.88;1.23;;;35.60;55.10;;;;;;5062568;28;20035;-60
2022/07/16 12:23:14;;;;;;;2.55;1.20;;;35.50;54.70;;;;;;5064622;28;20066;-57
2022/07/16 12:25:45;;;;;;;2.88;1.20;;;35.60;55.20;;;;;;5062347;28;20497;-59
2022/07/16 12:28:16;;;;;;;3.13;1.50;;;35.40;55.10;;;;;;5063200;28;20424;-58
2022/07/16 12:30:57;;;;;;;2.00;1.55;;;35.40;55.80;;;;;;5061841;28;20104;-58
2022/07/16 12:33:28;;;;;;;2.50;1.55;;;35.40;55.70;;;;;;5065974;28;20033;-59
2022/07/16 12:36:12;;;;;;;2.45;1.27;;;35.50;55.70;;;;;;5073133;28;20425;-59
2022/07/16 12:38:41;;;;;;;1.92;1.50;;;35.60;55.20;;;;;;5072393;28;20033;-59
2022/07/16 12:41:13;;;;;;;2.47;1.40;;;35.70;54.70;;;;;;5072570;28;20032;-58
2022/07/16 12:43:41;;;;;;;1.90;1.60;;;35.60;54.80;;;;;;5072403;28;20107;-59
2022/07/16 12:46:07;;;;;;;1.60;1.50;;;35.60;55.90;;;;;;5072544;28;20493;-59
2022/07/16 12:48:51;;;;;;;1.50;1.40;;;35.70;56.30;;;;;;5072403;28;20028;-59
2022/07/16 12:51:20;;;;;;;2.80;2.60;;;35.60;54.20;;;;;;5067480;28;20032;-59
2022/07/16 12:53:47;;;;;;;13.35;2.33;;;35.70;55.10;;;;;;5054644;28;20032;-59
2022/07/16 12:58:58;;;;;;;2.05;1.60;;;35.70;53.10;;;;;;5060451;28;20087;-59
2022/07/16 13:01:24;;;;;;;3.83;1.73;;;35.80;55.10;;;;;;5052336;28;20029;-59
2022/07/16 13:03:51;;;;;;;3.00;2.50;;;35.80;53.70;;;;;;5051946;28;20024;-59